Portada
METAR-TAF:

METAR-TAF

Aeropuertos :

Aeropuerto de Sylt

Westerland, Alemania

latitud: 54-55N, longitud: 008-21E, altitud: 16 m

Observación

El informe se hizo hace 4 horas y 20 minutos, a las 19:20 UTC
Viento 13 kt del sureste
Temperatura 2°C
Humedad 93%
Presión 981 hPa
Visibilidad: 6000 m
Cielo nuboso a una altura de 900 ft
Cielo cubierto a una altura de 1300 ft

METAR: EDXW 131920Z 14013KT 6000 BKN009 OVC013 02/01 Q0981

Hora: 00:40 (23:40 UTC)

Pronóstico

El informe se hizo hace 9 horas y 40 minutos, a las 14:00 UTC
Pronóstico válido del 13 a las 15 UTC al 13 a las 18 UTC
Viento 13 kt del este-sureste
Visibilidad 10 km o más
Escasas nubes a una altura de 1500 ft

TAF: EDXW 131400Z 1315/1318 12013KT 9999 FEW015

Observaciones y pronósticos meteorológicos de más de 4000 aeropuertos (mensajes METAR y TAF).

Los puntos amarillos y rojos representan las estaciones disponibles.

Ponga el ratón en el punto deseado para ver el nombre de la estación.

Haga clic para ver las observaciones y los pronósticos meteorológicos.

Para cambiar el mapa : haga clic en los botones verdes con una cruz de color negro para hacer un zoom, en el botón verde con un guión para alejar o en las flechas verdes para mapas adyacentes.


METAR-TAF: